createdAt,value
2022-10-17T00:01:00.521Z,12.39
2022-10-17T00:03:28.687Z,12.39
2022-10-17T00:05:57.897Z,12.40
2022-10-17T00:08:27.476Z,12.34
2022-10-17T00:10:59.912Z,12.36
2022-10-17T00:13:28.025Z,12.34
2022-10-17T00:15:56.053Z,12.32
2022-10-17T00:18:23.884Z,12.28
2022-10-17T00:20:51.734Z,12.25
2022-10-17T00:23:19.666Z,12.22
2022-10-17T00:25:48.717Z,12.14
2022-10-17T00:28:17.156Z,12.05
2022-10-17T00:30:44.849Z,12.01
2022-10-17T00:33:12.542Z,12.00
2022-10-17T00:35:40.218Z,12.01
2022-10-17T00:38:07.851Z,12.02
2022-10-17T00:40:35.654Z,12.00
2022-10-17T00:43:04.774Z,11.98
2022-10-17T00:45:33.020Z,11.97
2022-10-17T00:48:02.310Z,11.94
2022-10-17T00:50:30.204Z,11.91
2022-10-17T00:53:00.921Z,11.87
2022-10-17T00:55:31.458Z,11.83
2022-10-17T00:57:59.623Z,11.83
2022-10-17T01:00:28.674Z,11.80
2022-10-17T01:02:56.390Z,11.72
2022-10-17T01:05:24.345Z,11.71
2022-10-17T01:07:54.231Z,11.69
2022-10-17T01:12:58.830Z,11.64
2022-10-17T01:15:40.147Z,11.62
2022-10-17T01:18:15.257Z,11.61
2022-10-17T01:21:01.598Z,11.60
2022-10-17T01:23:39.891Z,11.60
2022-10-17T01:26:17.157Z,11.59
2022-10-17T01:29:22.453Z,11.58
2022-10-17T01:31:56.299Z,11.58
2022-10-17T01:34:30.767Z,11.56
2022-10-17T01:37:01.888Z,11.51
2022-10-17T01:39:38.493Z,11.50
2022-10-17T01:42:14.129Z,11.47
2022-10-17T01:44:47.838Z,11.38
2022-10-17T01:47:20.729Z,11.34
2022-10-17T01:49:51.097Z,11.34
2022-10-17T01:52:21.816Z,11.36
2022-10-17T01:54:52.952Z,11.35
2022-10-17T01:57:25.242Z,11.36
2022-10-17T01:59:54.279Z,11.36
2022-10-17T02:02:24.537Z,11.34
2022-10-17T02:04:53.232Z,11.25
2022-10-17T02:07:20.944Z,11.14
2022-10-17T02:09:48.711Z,11.04
2022-10-17T02:12:39.709Z,11.00
2022-10-17T02:15:25.604Z,11.00
2022-10-17T02:17:59.329Z,11.03
2022-10-17T02:20:31.251Z,11.04
2022-10-17T02:23:02.725Z,11.02
2022-10-17T02:25:36.543Z,11.02
2022-10-17T02:28:10.755Z,11.05
2022-10-17T02:30:43.151Z,11.08
2022-10-17T02:33:14.615Z,11.07
2022-10-17T02:35:46.779Z,11.02
2022-10-17T02:38:14.652Z,10.98
2022-10-17T02:40:43.195Z,10.98
2022-10-17T02:43:11.092Z,10.98
2022-10-17T02:45:39.358Z,10.96
2022-10-17T02:48:09.414Z,10.91
2022-10-17T02:50:46.132Z,10.84
2022-10-17T02:53:16.404Z,10.79
2022-10-17T02:55:49.070Z,10.79
2022-10-17T02:58:21.001Z,10.82
2022-10-17T03:00:48.911Z,10.78
2022-10-17T03:03:21.313Z,10.72
2022-10-17T03:05:50.497Z,10.73
2022-10-17T03:08:18.171Z,10.73
2022-10-17T03:10:45.931Z,10.73
2022-10-17T03:13:13.741Z,10.69
2022-10-17T03:15:41.653Z,10.66
2022-10-17T03:18:09.638Z,10.62
2022-10-17T03:20:37.449Z,10.59
2022-10-17T03:23:06.596Z,10.57
2022-10-17T03:25:34.391Z,10.57
2022-10-17T03:28:02.227Z,10.59
2022-10-17T03:30:30.142Z,10.61
2022-10-17T03:32:58.657Z,10.55
2022-10-17T03:35:26.418Z,10.52
2022-10-17T03:37:54.216Z,10.48
2022-10-17T03:40:23.221Z,10.46
2022-10-17T03:42:50.916Z,10.44
2022-10-17T03:45:18.564Z,10.45
2022-10-17T03:47:46.328Z,10.42
2022-10-17T03:50:14.006Z,10.36
2022-10-17T03:52:41.657Z,10.32
2022-10-17T03:55:09.570Z,10.31
2022-10-17T03:57:41.105Z,10.30
2022-10-17T04:00:12.328Z,10.25
2022-10-17T04:02:40.120Z,10.26
2022-10-17T04:05:09.187Z,10.26
2022-10-17T04:07:37.234Z,10.27
2022-10-17T04:10:05.447Z,10.26
2022-10-17T04:12:33.194Z,10.25
2022-10-17T04:15:02.408Z,10.18
2022-10-17T04:17:35.783Z,10.14
2022-10-17T04:20:06.526Z,10.12
2022-10-17T04:22:34.325Z,10.11
2022-10-17T04:25:02.032Z,10.07
2022-10-17T04:27:29.778Z,10.07
2022-10-17T04:29:57.409Z,10.08
2022-10-17T04:32:26.906Z,10.08
2022-10-17T04:34:54.825Z,10.11
2022-10-17T04:37:22.469Z,10.10
2022-10-17T04:39:50.210Z,10.08
2022-10-17T04:42:17.992Z,10.10
2022-10-17T04:44:45.630Z,10.08
2022-10-17T04:47:13.322Z,10.07
2022-10-17T04:49:42.422Z,10.06
2022-10-17T04:52:10.140Z,10.04
2022-10-17T04:54:37.805Z,10.02
2022-10-17T04:57:05.587Z,10.04
2022-10-17T04:59:33.223Z,10.02
2022-10-17T05:02:00.937Z,10.02
2022-10-17T05:04:28.597Z,10.00
2022-10-17T05:06:57.749Z,9.97
2022-10-17T05:09:25.518Z,9.90
2022-10-17T05:11:53.413Z,9.89
2022-10-17T05:14:21.085Z,9.86
2022-10-17T05:16:48.846Z,9.83
2022-10-17T05:19:17.200Z,9.81
2022-10-17T05:21:45.171Z,9.73
2022-10-17T05:24:15.948Z,9.67
2022-10-17T05:26:43.593Z,9.64
2022-10-17T05:29:11.305Z,9.60
2022-10-17T05:31:39.200Z,9.52
2022-10-17T05:34:09.053Z,9.50
2022-10-17T05:36:39.245Z,9.53
2022-10-17T05:39:07.033Z,9.52
2022-10-17T05:41:36.109Z,9.51
2022-10-17T05:44:05.569Z,9.49
2022-10-17T05:46:34.485Z,9.48
2022-10-17T05:49:05.296Z,9.46
2022-10-17T05:51:35.540Z,9.51
2022-10-17T05:54:03.313Z,9.52
2022-10-17T05:56:31.009Z,9.58
2022-10-17T05:59:01.016Z,9.61
2022-10-17T06:01:29.005Z,9.62
2022-10-17T06:03:56.723Z,9.68
2022-10-17T06:06:24.547Z,9.68
2022-10-17T06:08:52.205Z,9.70
2022-10-17T06:11:19.787Z,9.70
2022-10-17T06:13:47.489Z,9.64
2022-10-17T06:16:16.582Z,9.63
2022-10-17T06:18:44.290Z,9.63
2022-10-17T06:21:13.003Z,9.63
2022-10-17T06:23:40.689Z,9.69
2022-10-17T06:26:08.493Z,9.74
2022-10-17T06:28:37.179Z,9.80
2022-10-17T06:31:08.570Z,9.87
2022-10-17T06:33:38.487Z,9.94
2022-10-17T06:36:07.751Z,9.99
2022-10-17T06:38:36.082Z,10.06
2022-10-17T06:41:07.886Z,10.16
2022-10-17T06:43:35.604Z,10.25
2022-10-17T06:46:03.273Z,10.34
2022-10-17T06:48:30.966Z,10.42
2022-10-17T06:51:01.601Z,10.49
2022-10-17T06:53:29.947Z,10.60
2022-10-17T06:56:01.379Z,10.63
2022-10-17T06:58:29.408Z,10.67
2022-10-17T07:01:01.012Z,10.73
2022-10-17T07:03:29.453Z,10.83
2022-10-17T07:05:57.698Z,10.94
2022-10-17T07:08:27.100Z,11.08
2022-10-17T07:10:55.399Z,11.22
2022-10-17T07:13:23.109Z,11.34
2022-10-17T07:15:50.975Z,11.46
2022-10-17T07:18:18.733Z,11.61
2022-10-17T07:20:53.988Z,11.74
2022-10-17T07:23:21.716Z,11.87
2022-10-17T07:25:50.949Z,12.01
2022-10-17T07:28:18.631Z,12.17
2022-10-17T07:30:49.313Z,12.32
2022-10-17T07:33:18.448Z,12.47
2022-10-17T07:35:46.093Z,12.62
2022-10-17T07:38:13.763Z,12.74
2022-10-17T07:40:41.394Z,12.85
2022-10-17T07:43:10.466Z,12.93
2022-10-17T07:45:38.214Z,13.03
2022-10-17T07:48:06.476Z,13.12
2022-10-17T07:50:34.203Z,13.22
2022-10-17T07:53:01.998Z,13.32
2022-10-17T07:55:29.648Z,13.46
2022-10-17T07:57:58.213Z,13.60
2022-10-17T08:00:27.367Z,13.78
2022-10-17T08:02:55.137Z,13.96
2022-10-17T08:05:22.848Z,14.13
2022-10-17T08:07:50.471Z,14.31
2022-10-17T08:10:18.691Z,14.51
2022-10-17T08:12:46.486Z,14.71
2022-10-17T08:15:14.307Z,14.88
2022-10-17T08:17:43.336Z,15.06
2022-10-17T08:20:12.291Z,15.24
2022-10-17T08:22:39.971Z,15.39
2022-10-17T08:25:08.768Z,15.51
2022-10-17T08:27:36.871Z,15.69
2022-10-17T08:30:05.012Z,15.85
2022-10-17T08:32:32.927Z,16.02
2022-10-17T08:35:02.298Z,16.17
2022-10-17T08:37:31.004Z,16.33
2022-10-17T08:39:59.432Z,16.47
2022-10-17T08:42:47.003Z,16.68
2022-10-17T08:45:21.769Z,16.88
2022-10-17T08:47:52.537Z,16.93
2022-10-17T08:50:26.958Z,16.86
2022-10-17T08:52:56.957Z,16.99
2022-10-17T08:55:31.006Z,17.08
2022-10-17T08:57:58.858Z,17.20
2022-10-17T09:00:27.480Z,17.19
2022-10-17T09:03:09.595Z,17.31
2022-10-17T09:05:47.189Z,17.52
2022-10-17T09:08:33.982Z,17.69
2022-10-17T09:11:04.307Z,17.87
2022-10-17T09:13:43.314Z,18.06
2022-10-17T09:16:31.053Z,18.19
2022-10-17T09:19:03.105Z,18.30
2022-10-17T09:21:40.799Z,18.51
2022-10-17T09:24:16.170Z,18.66
2022-10-17T09:26:45.921Z,18.78
2022-10-17T09:29:20.181Z,18.98
2022-10-17T09:31:52.527Z,19.16
2022-10-17T09:34:22.951Z,19.30
2022-10-17T09:36:54.403Z,19.44
2022-10-17T09:39:26.056Z,19.52
2022-10-17T09:41:55.620Z,19.68
2022-10-17T09:44:24.773Z,19.76
2022-10-17T09:47:08.862Z,19.96
2022-10-17T09:49:39.297Z,20.20
2022-10-17T09:52:12.946Z,20.32
2022-10-17T09:54:47.190Z,20.17
2022-10-17T09:57:16.214Z,20.28
2022-10-17T09:59:46.101Z,20.36
2022-10-17T10:02:22.085Z,20.48
2022-10-17T10:05:05.593Z,20.62
2022-10-17T10:07:37.397Z,20.77
2022-10-17T10:10:07.327Z,20.98
2022-10-17T10:12:37.423Z,21.15
2022-10-17T10:15:32.058Z,21.27
2022-10-17T10:17:59.764Z,21.38
2022-10-17T10:20:31.652Z,21.58
2022-10-17T10:23:14.915Z,21.83
2022-10-17T10:25:56.088Z,21.86
2022-10-17T10:28:27.860Z,21.86
2022-10-17T10:30:56.742Z,22.06
2022-10-17T10:33:27.359Z,21.95
2022-10-17T10:35:57.817Z,22.02
2022-10-17T10:38:26.763Z,22.26
2022-10-17T10:40:56.120Z,22.29
2022-10-17T10:43:29.662Z,22.37
2022-10-17T10:45:57.357Z,22.64
2022-10-17T10:48:26.382Z,22.68
2022-10-17T10:50:57.449Z,22.67
2022-10-17T10:53:38.349Z,22.81
2022-10-17T10:56:11.964Z,23.00
2022-10-17T10:58:43.741Z,23.19
2022-10-17T11:01:16.713Z,23.19
2022-10-17T11:03:54.702Z,23.31
2022-10-17T11:06:25.628Z,23.31
2022-10-17T11:09:15.909Z,23.31
2022-10-17T11:11:46.478Z,23.47
2022-10-17T11:14:17.726Z,23.55
2022-10-17T11:16:48.896Z,23.61
2022-10-17T11:19:21.621Z,23.74
2022-10-17T11:21:52.873Z,23.88
2022-10-17T11:24:25.495Z,23.90
2022-10-17T11:26:56.936Z,23.92
2022-10-17T11:29:29.658Z,24.00
2022-10-17T11:31:59.488Z,24.15
2022-10-17T11:34:28.613Z,24.31
2022-10-17T11:37:00.945Z,24.42
2022-10-17T11:39:32.558Z,24.29
2022-10-17T11:42:04.335Z,24.40
2022-10-17T11:44:35.478Z,24.29
2022-10-17T11:47:06.323Z,24.31
2022-10-17T11:49:39.947Z,24.29
2022-10-17T11:52:37.836Z,24.56
2022-10-17T11:55:12.580Z,24.67
2022-10-17T11:57:52.697Z,24.44
2022-10-17T12:00:28.936Z,24.52
2022-10-17T12:03:05.218Z,24.78
2022-10-17T12:05:38.165Z,25.10
2022-10-17T12:08:11.456Z,24.93
2022-10-17T12:10:46.952Z,24.99
2022-10-17T12:13:54.630Z,24.84
2022-10-17T12:16:44.658Z,25.07
2022-10-17T12:19:32.422Z,25.43
2022-10-17T12:22:03.664Z,25.42
2022-10-17T12:24:40.408Z,25.49
2022-10-17T12:27:33.378Z,25.79
2022-10-17T12:30:02.217Z,25.92
2022-10-17T12:32:36.841Z,25.99
2022-10-17T12:35:20.279Z,25.97
2022-10-17T12:38:28.252Z,26.05
2022-10-17T12:41:02.856Z,26.17
2022-10-17T12:46:45.234Z,25.93
2022-10-17T12:49:39.127Z,26.01
2022-10-17T12:52:19.883Z,26.22
2022-10-17T12:55:00.234Z,26.38
2022-10-17T12:57:39.120Z,26.39
2022-10-17T13:00:16.698Z,26.48
2022-10-17T13:02:44.623Z,26.25
2022-10-17T13:05:15.905Z,25.52
2022-10-17T13:07:45.457Z,25.85
2022-10-17T13:10:21.663Z,25.69
2022-10-17T13:12:50.111Z,25.72
2022-10-17T13:15:21.127Z,25.81
2022-10-17T13:17:56.975Z,25.67
2022-10-17T13:20:30.611Z,25.70
2022-10-17T13:22:59.979Z,25.38
2022-10-17T13:25:28.652Z,25.30
2022-10-17T13:28:09.662Z,25.40
2022-10-17T13:30:38.728Z,25.67
2022-10-17T13:33:20.089Z,25.17
2022-10-17T13:35:59.887Z,25.27
2022-10-17T13:38:29.969Z,24.92
2022-10-17T13:41:10.791Z,25.09
2022-10-17T13:43:45.982Z,24.81
2022-10-17T13:46:36.905Z,24.97
2022-10-17T13:49:10.587Z,24.84
2022-10-17T13:51:39.005Z,24.93
2022-10-17T13:54:19.004Z,25.00
2022-10-17T13:56:46.907Z,25.10
2022-10-17T13:59:21.912Z,24.86
2022-10-17T14:01:52.229Z,24.62
2022-10-17T14:04:20.646Z,24.59
2022-10-17T14:06:51.127Z,24.28
2022-10-17T14:09:22.707Z,24.24
2022-10-17T14:12:00.085Z,24.08
2022-10-17T14:14:28.044Z,24.00
2022-10-17T14:16:58.305Z,23.93
2022-10-17T14:19:28.869Z,24.00
2022-10-17T14:21:57.773Z,24.03
2022-10-17T14:24:31.453Z,23.98
2022-10-17T14:27:00.481Z,23.99
2022-10-17T14:29:30.512Z,24.01
2022-10-17T14:32:04.304Z,23.95
2022-10-17T14:34:35.044Z,23.88
2022-10-17T14:37:03.538Z,23.85
2022-10-17T14:39:31.336Z,23.72
2022-10-17T14:42:04.068Z,23.64
2022-10-17T14:44:33.638Z,23.68
2022-10-17T14:47:30.246Z,23.57
2022-10-17T14:49:53.860Z,23.45
2022-10-17T14:52:32.457Z,23.44
2022-10-17T14:55:01.837Z,23.38
2022-10-17T14:57:43.021Z,23.44
2022-10-17T15:00:15.427Z,23.49
2022-10-17T15:02:44.969Z,23.43
2022-10-17T15:05:13.550Z,23.41
2022-10-17T15:07:41.537Z,23.31
2022-10-17T15:10:22.172Z,23.30
2022-10-17T15:12:58.802Z,23.25
2022-10-17T15:15:33.110Z,23.23
2022-10-17T15:18:02.625Z,23.18
2022-10-17T15:20:30.885Z,23.10
2022-10-17T15:22:59.500Z,23.01
2022-10-17T15:25:27.851Z,22.91
2022-10-17T15:27:55.836Z,22.88
2022-10-17T15:30:25.425Z,22.77
2022-10-17T15:32:53.621Z,22.60
2022-10-17T15:35:23.515Z,22.51
2022-10-17T15:37:51.534Z,22.43
2022-10-17T15:40:21.302Z,22.33
2022-10-17T15:42:49.117Z,22.16
2022-10-17T15:45:18.925Z,21.93
2022-10-17T15:47:51.805Z,21.71
2022-10-17T15:50:19.896Z,21.57
2022-10-17T15:52:50.896Z,21.41
2022-10-17T15:55:19.204Z,21.29
2022-10-17T15:57:48.240Z,21.23
2022-10-17T16:00:19.551Z,21.17
2022-10-17T16:02:47.965Z,21.12
2022-10-17T16:05:18.020Z,21.07
2022-10-17T16:07:46.882Z,20.97
2022-10-17T16:10:16.879Z,20.82
2022-10-17T16:12:44.655Z,20.66
2022-10-17T16:15:15.025Z,20.54
2022-10-17T16:17:43.862Z,20.47
2022-10-17T16:20:12.544Z,20.37
2022-10-17T16:22:41.703Z,20.31
2022-10-17T16:25:20.405Z,20.19
2022-10-17T16:27:48.402Z,20.02
2022-10-17T16:32:54.276Z,19.74
2022-10-17T16:35:23.919Z,19.62
2022-10-17T16:37:51.788Z,19.28
2022-10-17T16:40:20.917Z,19.09
2022-10-17T16:42:48.607Z,19.09
2022-10-17T16:45:19.516Z,19.06
2022-10-17T16:47:48.358Z,18.98
2022-10-17T16:50:17.210Z,18.91
2022-10-17T16:52:45.002Z,18.89
2022-10-17T16:55:12.865Z,18.81
2022-10-17T17:00:18.283Z,18.51
2022-10-17T17:02:48.627Z,18.44
2022-10-17T17:05:16.491Z,18.37
2022-10-17T17:07:44.291Z,18.13
2022-10-17T17:10:12.142Z,18.03
2022-10-17T17:12:41.380Z,17.87
2022-10-17T17:15:09.714Z,17.82
2022-10-17T17:17:49.513Z,17.63
2022-10-17T17:20:19.102Z,17.41
2022-10-17T17:22:46.783Z,17.52
2022-10-17T17:25:14.646Z,17.58
2022-10-17T17:27:43.831Z,17.53
2022-10-17T17:30:12.665Z,17.61
2022-10-17T17:32:40.480Z,17.61
2022-10-17T17:35:09.459Z,17.52
2022-10-17T17:37:37.353Z,17.47
2022-10-17T17:40:06.578Z,17.43
2022-10-17T17:42:34.269Z,17.38
2022-10-17T17:45:03.762Z,17.26
2022-10-17T17:47:31.875Z,17.12
2022-10-17T17:49:59.759Z,17.04
2022-10-17T17:52:27.738Z,16.98
2022-10-17T17:54:55.647Z,16.89
2022-10-17T17:57:23.423Z,16.84
2022-10-17T17:59:52.218Z,16.77
2022-10-17T18:02:21.350Z,16.65
2022-10-17T18:04:49.710Z,16.56
2022-10-17T18:07:17.863Z,16.46
2022-10-17T18:09:45.585Z,16.48
2022-10-17T18:12:13.259Z,16.45
2022-10-17T18:14:40.931Z,16.35
2022-10-17T18:17:08.687Z,16.27
2022-10-17T18:19:37.823Z,16.13
2022-10-17T18:22:05.542Z,16.04
2022-10-17T18:24:33.219Z,15.87
2022-10-17T18:27:01.275Z,15.75
2022-10-17T18:29:29.507Z,15.66
2022-10-17T18:31:57.317Z,15.72
2022-10-17T18:34:25.439Z,15.74
2022-10-17T18:36:54.649Z,15.72
2022-10-17T18:39:22.611Z,15.72
2022-10-17T18:41:50.368Z,15.74
2022-10-17T18:44:18.099Z,15.79
2022-10-17T18:49:14.973Z,15.67
2022-10-17T18:51:43.231Z,15.64
2022-10-17T18:54:16.960Z,15.57
2022-10-17T18:56:45.039Z,15.38
2022-10-17T18:59:12.660Z,15.21
2022-10-17T19:01:40.433Z,15.08
2022-10-17T19:04:08.127Z,15.05
2022-10-17T19:06:35.786Z,15.00
2022-10-17T19:09:05.960Z,14.90
2022-10-17T19:11:36.192Z,14.81
2022-10-17T19:14:05.562Z,14.83
2022-10-17T19:16:35.468Z,14.82
2022-10-17T19:19:04.917Z,14.70
2022-10-17T19:21:32.630Z,14.66
2022-10-17T19:24:01.755Z,14.66
2022-10-17T19:26:31.046Z,14.70
2022-10-17T19:29:00.596Z,14.74
2022-10-17T19:31:29.996Z,14.79
2022-10-17T19:33:57.753Z,14.70
2022-10-17T19:36:30.468Z,14.62
2022-10-17T19:39:02.087Z,14.60
2022-10-17T19:41:29.769Z,14.48
2022-10-17T19:43:57.507Z,14.40
2022-10-17T19:46:27.905Z,14.26
2022-10-17T19:48:55.986Z,14.17
2022-10-17T19:51:25.313Z,14.05
2022-10-17T19:53:54.183Z,13.96
2022-10-17T19:56:22.858Z,13.92
2022-10-17T19:58:50.975Z,13.89
2022-10-17T20:01:20.505Z,13.90
2022-10-17T20:03:49.915Z,13.94
2022-10-17T20:06:18.478Z,13.90
2022-10-17T20:08:46.433Z,13.92
2022-10-17T20:11:15.511Z,13.87
2022-10-17T20:13:43.366Z,13.70
2022-10-17T20:16:13.879Z,13.69
2022-10-17T20:18:41.784Z,13.67
2022-10-17T20:21:12.438Z,13.71
2022-10-17T20:23:40.737Z,13.66
2022-10-17T20:26:25.529Z,13.69
2022-10-17T20:28:54.315Z,13.64
2022-10-17T20:31:22.211Z,13.64
2022-10-17T20:33:49.882Z,13.62
2022-10-17T20:36:23.245Z,13.58
2022-10-17T20:38:54.185Z,13.57
2022-10-17T20:41:21.847Z,13.58
2022-10-17T20:43:51.471Z,13.56
2022-10-17T20:46:29.773Z,13.57
2022-10-17T20:49:04.644Z,13.57
2022-10-17T20:51:34.544Z,13.53
2022-10-17T20:54:03.260Z,13.51
2022-10-17T20:56:32.828Z,13.49
2022-10-17T20:59:02.014Z,13.45
2022-10-17T21:01:30.453Z,13.46
2022-10-17T21:04:06.173Z,13.44
2022-10-17T21:06:39.804Z,13.41
2022-10-17T21:09:07.938Z,13.41
2022-10-17T21:11:35.612Z,13.39
2022-10-17T21:14:04.888Z,13.34
2022-10-17T21:16:34.957Z,13.22
2022-10-17T21:19:03.041Z,13.18
2022-10-17T21:21:33.585Z,13.20
2022-10-17T21:24:04.872Z,13.24
2022-10-17T21:26:33.777Z,13.25
2022-10-17T21:29:05.402Z,13.22
2022-10-17T21:31:34.179Z,13.13
2022-10-17T21:34:08.660Z,13.11
2022-10-17T21:36:36.544Z,13.10
2022-10-17T21:41:34.058Z,13.08
2022-10-17T21:44:03.594Z,13.07
2022-10-17T21:46:31.720Z,13.00
2022-10-17T21:49:00.186Z,12.97
2022-10-17T21:51:28.194Z,12.97
2022-10-17T21:53:57.131Z,12.95
2022-10-17T21:56:28.757Z,12.94
2022-10-17T21:58:57.790Z,12.92
2022-10-17T22:01:26.980Z,12.90
2022-10-17T22:03:55.967Z,12.91
2022-10-17T22:06:39.322Z,12.86
2022-10-17T22:09:10.269Z,12.81
2022-10-17T22:11:39.541Z,12.78
2022-10-17T22:14:08.886Z,12.71
2022-10-17T22:16:36.536Z,12.67
2022-10-17T22:19:06.475Z,12.66
2022-10-17T22:21:35.274Z,12.62
2022-10-17T22:24:04.983Z,12.59
2022-10-17T22:26:33.889Z,12.59
2022-10-17T22:29:04.296Z,12.60
2022-10-17T22:31:32.281Z,12.62
2022-10-17T22:34:00.163Z,12.58
2022-10-17T22:36:27.892Z,12.51
2022-10-17T22:38:55.544Z,12.49
2022-10-17T22:41:23.233Z,12.44
2022-10-17T22:43:50.944Z,12.40
2022-10-17T22:46:19.971Z,12.36
2022-10-17T22:48:47.632Z,12.34
2022-10-17T22:51:15.499Z,12.33
2022-10-17T22:53:43.202Z,12.33
2022-10-17T22:56:14.137Z,12.29
2022-10-17T22:58:42.243Z,12.26
2022-10-17T23:01:12.713Z,12.22
2022-10-17T23:03:41.831Z,12.23
2022-10-17T23:06:09.531Z,12.26
2022-10-17T23:08:37.761Z,12.26
2022-10-17T23:11:06.253Z,12.27
2022-10-17T23:13:33.966Z,12.22
2022-10-17T23:16:01.727Z,12.19
2022-10-17T23:20:58.373Z,12.08
2022-10-17T23:23:26.052Z,12.00
2022-10-17T23:25:53.961Z,11.92
2022-10-17T23:28:21.980Z,11.90
2022-10-17T23:30:49.737Z,11.87
2022-10-17T23:33:17.392Z,11.85
2022-10-17T23:35:45.159Z,11.85
2022-10-17T23:38:14.197Z,11.83
2022-10-17T23:40:42.057Z,11.86
2022-10-17T23:43:09.801Z,11.91
2022-10-17T23:45:37.575Z,11.91
2022-10-17T23:48:05.986Z,11.82
2022-10-17T23:50:33.632Z,11.77
2022-10-17T23:53:01.264Z,11.75
2022-10-17T23:55:30.493Z,11.67
2022-10-17T23:57:58.132Z,11.65
